sensor_id;sensor_type;location;lat;lon;timestamp;pressure;altitude;pressure_sealevel;temperature
68510;BMP180;55512;50.102;19.958;2022-12-10T00:01:09;97202.20;;;1.80
68510;BMP180;55512;50.102;19.958;2022-12-10T00:03:36;97197.80;;;1.80
68510;BMP180;55512;50.102;19.958;2022-12-10T00:06:06;97201.00;;;1.80
68510;BMP180;55512;50.102;19.958;2022-12-10T00:08:33;97203.20;;;1.80
68510;BMP180;55512;50.102;19.958;2022-12-10T00:10:59;97205.60;;;1.80
68510;BMP180;55512;50.102;19.958;2022-12-10T00:13:25;97213.40;;;1.80
68510;BMP180;55512;50.102;19.958;2022-12-10T00:15:50;97212.80;;;1.80
68510;BMP180;55512;50.102;19.958;2022-12-10T00:18:16;97218.40;;;1.80
68510;BMP180;55512;50.102;19.958;2022-12-10T00:20:41;97217.80;;;1.74
68510;BMP180;55512;50.102;19.958;2022-12-10T00:23:07;97216.60;;;1.72
68510;BMP180;55512;50.102;19.958;2022-12-10T00:25:32;97217.40;;;1.70
68510;BMP180;55512;50.102;19.958;2022-12-10T00:27:58;97215.60;;;1.70
68510;BMP180;55512;50.102;19.958;2022-12-10T00:30:24;97216.20;;;1.70
68510;BMP180;55512;50.102;19.958;2022-12-10T00:32:50;97212.40;;;1.70
68510;BMP180;55512;50.102;19.958;2022-12-10T00:35:15;97220.40;;;1.70
68510;BMP180;55512;50.102;19.958;2022-12-10T00:37:41;97227.80;;;1.70
68510;BMP180;55512;50.102;19.958;2022-12-10T00:40:07;97222.20;;;1.72
68510;BMP180;55512;50.102;19.958;2022-12-10T00:42:34;97223.80;;;1.70
68510;BMP180;55512;50.102;19.958;2022-12-10T00:44:59;97225.40;;;1.70
68510;BMP180;55512;50.102;19.958;2022-12-10T00:47:25;97220.40;;;1.70
68510;BMP180;55512;50.102;19.958;2022-12-10T00:49:50;97226.40;;;1.66
68510;BMP180;55512;50.102;19.958;2022-12-10T00:52:16;97221.60;;;1.62
68510;BMP180;55512;50.102;19.958;2022-12-10T00:54:41;97217.60;;;1.60
68510;BMP180;55512;50.102;19.958;2022-12-10T00:57:07;97212.80;;;1.60
68510;BMP180;55512;50.102;19.958;2022-12-10T00:59:32;97213.00;;;1.60
68510;BMP180;55512;50.102;19.958;2022-12-10T01:01:58;97220.80;;;1.60
68510;BMP180;55512;50.102;19.958;2022-12-10T01:04:23;97224.60;;;1.60
68510;BMP180;55512;50.102;19.958;2022-12-10T01:06:52;97223.60;;;1.56
68510;BMP180;55512;50.102;19.958;2022-12-10T01:09:24;97220.80;;;1.60
68510;BMP180;55512;50.102;19.958;2022-12-10T01:11:52;97225.00;;;1.56
68510;BMP180;55512;50.102;19.958;2022-12-10T01:14:23;97218.20;;;1.54
68510;BMP180;55512;50.102;19.958;2022-12-10T01:16:55;97218.00;;;1.60
68510;BMP180;55512;50.102;19.958;2022-12-10T01:19:21;97220.80;;;1.60
68510;BMP180;55512;50.102;19.958;2022-12-10T01:21:54;97222.40;;;1.60
68510;BMP180;55512;50.102;19.958;2022-12-10T01:24:22;97223.00;;;1.60
68510;BMP180;55512;50.102;19.958;2022-12-10T01:26:48;97232.40;;;1.60
68510;BMP180;55512;50.102;19.958;2022-12-10T01:29:13;97237.60;;;1.60
68510;BMP180;55512;50.102;19.958;2022-12-10T01:31:39;97236.20;;;1.60
68510;BMP180;55512;50.102;19.958;2022-12-10T01:34:11;97236.60;;;1.60
68510;BMP180;55512;50.102;19.958;2022-12-10T01:36:43;97247.60;;;1.60
68510;BMP180;55512;50.102;19.958;2022-12-10T01:39:13;97252.40;;;1.60
68510;BMP180;55512;50.102;19.958;2022-12-10T01:42:03;97253.60;;;1.60
68510;BMP180;55512;50.102;19.958;2022-12-10T01:46:58;97249.80;;;1.60
68510;BMP180;55512;50.102;19.958;2022-12-10T01:49:37;97240.40;;;1.60
68510;BMP180;55512;50.102;19.958;2022-12-10T01:52:07;97243.80;;;1.60
68510;BMP180;55512;50.102;19.958;2022-12-10T01:54:46;97251.20;;;1.60
68510;BMP180;55512;50.102;19.958;2022-12-10T01:59:48;97246.60;;;1.60
68510;BMP180;55512;50.102;19.958;2022-12-10T02:07:54;97257.40;;;1.52
68510;BMP180;55512;50.102;19.958;2022-12-10T02:10:27;97260.20;;;1.50
68510;BMP180;55512;50.102;19.958;2022-12-10T02:16:17;97263.40;;;1.44
68510;BMP180;55512;50.102;19.958;2022-12-10T02:18:55;97266.20;;;1.40
68510;BMP180;55512;50.102;19.958;2022-12-10T02:21:33;97264.20;;;1.40
68510;BMP180;55512;50.102;19.958;2022-12-10T02:24:08;97258.60;;;1.40
68510;BMP180;55512;50.102;19.958;2022-12-10T02:29:28;97255.80;;;1.36
68510;BMP180;55512;50.102;19.958;2022-12-10T02:32:07;97252.80;;;1.30
68510;BMP180;55512;50.102;19.958;2022-12-10T02:34:40;97249.60;;;1.30
68510;BMP180;55512;50.102;19.958;2022-12-10T02:37:35;97251.00;;;1.30
68510;BMP180;55512;50.102;19.958;2022-12-10T02:40:08;97250.40;;;1.28
68510;BMP180;55512;50.102;19.958;2022-12-10T02:42:39;97259.00;;;1.20
68510;BMP180;55512;50.102;19.958;2022-12-10T02:45:08;97266.80;;;1.20
68510;BMP180;55512;50.102;19.958;2022-12-10T02:47:35;97273.80;;;1.20
68510;BMP180;55512;50.102;19.958;2022-12-10T02:50:02;97282.00;;;1.20
68510;BMP180;55512;50.102;19.958;2022-12-10T02:52:28;97280.40;;;1.28
68510;BMP180;55512;50.102;19.958;2022-12-10T02:54:54;97280.40;;;1.30
68510;BMP180;55512;50.102;19.958;2022-12-10T03:00:03;97285.60;;;1.30
68510;BMP180;55512;50.102;19.958;2022-12-10T03:03:13;97288.80;;;1.30
68510;BMP180;55512;50.102;19.958;2022-12-10T03:05:55;97288.60;;;1.30
68510;BMP180;55512;50.102;19.958;2022-12-10T03:11:15;97287.80;;;1.30
68510;BMP180;55512;50.102;19.958;2022-12-10T03:14:00;97291.20;;;1.30
68510;BMP180;55512;50.102;19.958;2022-12-10T03:16:53;97288.60;;;1.30
68510;BMP180;55512;50.102;19.958;2022-12-10T03:19:27;97279.80;;;1.30
68510;BMP180;55512;50.102;19.958;2022-12-10T03:21:56;97278.40;;;1.36
68510;BMP180;55512;50.102;19.958;2022-12-10T03:24:25;97285.00;;;1.40
68510;BMP180;55512;50.102;19.958;2022-12-10T03:26:52;97284.20;;;1.40
68510;BMP180;55512;50.102;19.958;2022-12-10T03:29:29;97294.40;;;1.40
68510;BMP180;55512;50.102;19.958;2022-12-10T03:31:56;97289.40;;;1.40
68510;BMP180;55512;50.102;19.958;2022-12-10T03:34:23;97284.40;;;1.40
68510;BMP180;55512;50.102;19.958;2022-12-10T03:36:50;97283.40;;;1.40
68510;BMP180;55512;50.102;19.958;2022-12-10T03:39:17;97288.40;;;1.40
68510;BMP180;55512;50.102;19.958;2022-12-10T03:41:43;97303.80;;;1.40
68510;BMP180;55512;50.102;19.958;2022-12-10T03:44:08;97306.80;;;1.50
68510;BMP180;55512;50.102;19.958;2022-12-10T03:46:34;97299.00;;;1.50
68510;BMP180;55512;50.102;19.958;2022-12-10T03:49:02;97302.60;;;1.50
68510;BMP180;55512;50.102;19.958;2022-12-10T03:51:28;97297.20;;;1.50
68510;BMP180;55512;50.102;19.958;2022-12-10T03:53:53;97294.80;;;1.50
68510;BMP180;55512;50.102;19.958;2022-12-10T03:56:20;97290.80;;;1.50
68510;BMP180;55512;50.102;19.958;2022-12-10T03:58:46;97297.20;;;1.50
68510;BMP180;55512;50.102;19.958;2022-12-10T04:01:12;97303.80;;;1.50
68510;BMP180;55512;50.102;19.958;2022-12-10T04:03:41;97316.20;;;1.56
68510;BMP180;55512;50.102;19.958;2022-12-10T04:06:13;97316.20;;;1.60
68510;BMP180;55512;50.102;19.958;2022-12-10T04:08:39;97314.20;;;1.60
68510;BMP180;55512;50.102;19.958;2022-12-10T04:11:08;97322.80;;;1.60
68510;BMP180;55512;50.102;19.958;2022-12-10T04:13:36;97328.20;;;1.60
68510;BMP180;55512;50.102;19.958;2022-12-10T04:16:23;97340.00;;;1.60
68510;BMP180;55512;50.102;19.958;2022-12-10T04:18:57;97351.60;;;1.60
68510;BMP180;55512;50.102;19.958;2022-12-10T04:21:24;97354.60;;;1.60
68510;BMP180;55512;50.102;19.958;2022-12-10T04:24:10;97358.20;;;1.60
68510;BMP180;55512;50.102;19.958;2022-12-10T04:26:57;97360.20;;;1.60
68510;BMP180;55512;50.102;19.958;2022-12-10T04:29:29;97368.40;;;1.60
68510;BMP180;55512;50.102;19.958;2022-12-10T04:31:57;97367.80;;;1.60
68510;BMP180;55512;50.102;19.958;2022-12-10T04:34:24;97365.40;;;1.60
68510;BMP180;55512;50.102;19.958;2022-12-10T04:36:50;97355.00;;;1.60
68510;BMP180;55512;50.102;19.958;2022-12-10T04:39:17;97344.80;;;1.60
68510;BMP180;55512;50.102;19.958;2022-12-10T04:41:48;97337.60;;;1.60
68510;BMP180;55512;50.102;19.958;2022-12-10T04:44:14;97346.60;;;1.60
68510;BMP180;55512;50.102;19.958;2022-12-10T04:46:41;97345.00;;;1.66
68510;BMP180;55512;50.102;19.958;2022-12-10T04:49:06;97344.20;;;1.68
68510;BMP180;55512;50.102;19.958;2022-12-10T04:51:32;97354.20;;;1.68
68510;BMP180;55512;50.102;19.958;2022-12-10T04:53:58;97358.00;;;1.70
68510;BMP180;55512;50.102;19.958;2022-12-10T04:56:25;97360.40;;;1.70
68510;BMP180;55512;50.102;19.958;2022-12-10T04:58:51;97364.40;;;1.70
68510;BMP180;55512;50.102;19.958;2022-12-10T05:01:16;97367.80;;;1.70
68510;BMP180;55512;50.102;19.958;2022-12-10T05:03:44;97371.40;;;1.66
68510;BMP180;55512;50.102;19.958;2022-12-10T05:06:13;97357.20;;;1.60
68510;BMP180;55512;50.102;19.958;2022-12-10T05:08:41;97359.20;;;1.60
68510;BMP180;55512;50.102;19.958;2022-12-10T05:11:11;97365.80;;;1.60
68510;BMP180;55512;50.102;19.958;2022-12-10T05:13:38;97374.80;;;1.60
68510;BMP180;55512;50.102;19.958;2022-12-10T05:16:08;97375.00;;;1.60
68510;BMP180;55512;50.102;19.958;2022-12-10T05:18:36;97371.60;;;1.60
68510;BMP180;55512;50.102;19.958;2022-12-10T05:21:05;97366.40;;;1.60
68510;BMP180;55512;50.102;19.958;2022-12-10T05:23:32;97363.00;;;1.60
68510;BMP180;55512;50.102;19.958;2022-12-10T05:26:09;97379.20;;;1.60
68510;BMP180;55512;50.102;19.958;2022-12-10T05:28:44;97387.00;;;1.60
68510;BMP180;55512;50.102;19.958;2022-12-10T05:31:36;97394.20;;;1.60
68510;BMP180;55512;50.102;19.958;2022-12-10T05:34:03;97396.40;;;1.60
68510;BMP180;55512;50.102;19.958;2022-12-10T05:36:30;97406.00;;;1.50
68510;BMP180;55512;50.102;19.958;2022-12-10T05:38:58;97421.00;;;1.52
68510;BMP180;55512;50.102;19.958;2022-12-10T05:41:27;97424.00;;;1.60
68510;BMP180;55512;50.102;19.958;2022-12-10T05:43:55;97429.00;;;1.56
68510;BMP180;55512;50.102;19.958;2022-12-10T05:46:26;97435.40;;;1.56
68510;BMP180;55512;50.102;19.958;2022-12-10T05:48:52;97437.20;;;1.60
68510;BMP180;55512;50.102;19.958;2022-12-10T05:51:22;97431.60;;;1.60
68510;BMP180;55512;50.102;19.958;2022-12-10T05:53:48;97423.40;;;1.60
68510;BMP180;55512;50.102;19.958;2022-12-10T05:56:17;97431.60;;;1.60
68510;BMP180;55512;50.102;19.958;2022-12-10T05:58:46;97437.80;;;1.60
68510;BMP180;55512;50.102;19.958;2022-12-10T06:01:18;97429.80;;;1.58
68510;BMP180;55512;50.102;19.958;2022-12-10T06:03:44;97417.60;;;1.60
68510;BMP180;55512;50.102;19.958;2022-12-10T06:06:11;97401.80;;;1.60
68510;BMP180;55512;50.102;19.958;2022-12-10T06:08:38;97395.80;;;1.60
68510;BMP180;55512;50.102;19.958;2022-12-10T06:11:08;97391.40;;;1.60
68510;BMP180;55512;50.102;19.958;2022-12-10T06:13:35;97396.20;;;1.60
68510;BMP180;55512;50.102;19.958;2022-12-10T06:16:10;97407.80;;;1.60
68510;BMP180;55512;50.102;19.958;2022-12-10T06:18:37;97412.80;;;1.70
68510;BMP180;55512;50.102;19.958;2022-12-10T06:21:09;97407.20;;;1.68
68510;BMP180;55512;50.102;19.958;2022-12-10T06:23:36;97400.80;;;1.70
68510;BMP180;55512;50.102;19.958;2022-12-10T06:26:09;97395.20;;;1.70
68510;BMP180;55512;50.102;19.958;2022-12-10T06:28:35;97398.60;;;1.70
68510;BMP180;55512;50.102;19.958;2022-12-10T06:31:01;97397.00;;;1.62
68510;BMP180;55512;50.102;19.958;2022-12-10T06:33:26;97398.00;;;1.60
68510;BMP180;55512;50.102;19.958;2022-12-10T06:35:52;97404.00;;;1.60
68510;BMP180;55512;50.102;19.958;2022-12-10T06:38:18;97414.00;;;1.60
68510;BMP180;55512;50.102;19.958;2022-12-10T06:40:43;97421.00;;;1.70
68510;BMP180;55512;50.102;19.958;2022-12-10T06:43:09;97422.80;;;1.70
68510;BMP180;55512;50.102;19.958;2022-12-10T06:45:39;97427.60;;;1.70
68510;BMP180;55512;50.102;19.958;2022-12-10T06:48:05;97440.60;;;1.68
68510;BMP180;55512;50.102;19.958;2022-12-10T06:50:31;97444.60;;;1.70
68510;BMP180;55512;50.102;19.958;2022-12-10T06:52:57;97445.40;;;1.70
68510;BMP180;55512;50.102;19.958;2022-12-10T06:55:22;97452.60;;;1.70
68510;BMP180;55512;50.102;19.958;2022-12-10T06:57:51;97462.00;;;1.70
68510;BMP180;55512;50.102;19.958;2022-12-10T07:00:18;97464.00;;;1.70
68510;BMP180;55512;50.102;19.958;2022-12-10T07:02:43;97467.40;;;1.70
68510;BMP180;55512;50.102;19.958;2022-12-10T07:05:09;97474.40;;;1.70
68510;BMP180;55512;50.102;19.958;2022-12-10T07:07:36;97475.00;;;1.70
68510;BMP180;55512;50.102;19.958;2022-12-10T07:10:03;97480.00;;;1.74
68510;BMP180;55512;50.102;19.958;2022-12-10T07:12:29;97498.00;;;1.78
68510;BMP180;55512;50.102;19.958;2022-12-10T07:14:55;97503.00;;;1.80
68510;BMP180;55512;50.102;19.958;2022-12-10T07:17:20;97498.20;;;1.80
68510;BMP180;55512;50.102;19.958;2022-12-10T07:19:46;97493.80;;;1.80
68510;BMP180;55512;50.102;19.958;2022-12-10T07:22:11;97490.20;;;1.80
68510;BMP180;55512;50.102;19.958;2022-12-10T07:24:36;97485.40;;;1.80
68510;BMP180;55512;50.102;19.958;2022-12-10T07:27:05;97486.60;;;1.80
68510;BMP180;55512;50.102;19.958;2022-12-10T07:29:31;97492.60;;;1.80
68510;BMP180;55512;50.102;19.958;2022-12-10T07:31:56;97492.80;;;1.80
68510;BMP180;55512;50.102;19.958;2022-12-10T07:34:22;97503.00;;;1.80
68510;BMP180;55512;50.102;19.958;2022-12-10T07:36:48;97510.00;;;1.80
68510;BMP180;55512;50.102;19.958;2022-12-10T07:39:14;97507.40;;;1.80
68510;BMP180;55512;50.102;19.958;2022-12-10T07:41:50;97501.40;;;1.82
68510;BMP180;55512;50.102;19.958;2022-12-10T07:44:19;97496.60;;;1.90
68510;BMP180;55512;50.102;19.958;2022-12-10T07:46:47;97501.00;;;1.90
68510;BMP180;55512;50.102;19.958;2022-12-10T07:49:13;97502.00;;;1.90
68510;BMP180;55512;50.102;19.958;2022-12-10T07:51:39;97513.80;;;1.90
68510;BMP180;55512;50.102;19.958;2022-12-10T07:54:04;97510.20;;;1.90
68510;BMP180;55512;50.102;19.958;2022-12-10T07:56:30;97502.60;;;1.90
68510;BMP180;55512;50.102;19.958;2022-12-10T07:58:55;97495.40;;;1.98
68510;BMP180;55512;50.102;19.958;2022-12-10T08:01:24;97488.80;;;1.90
68510;BMP180;55512;50.102;19.958;2022-12-10T08:03:52;97489.40;;;1.90
68510;BMP180;55512;50.102;19.958;2022-12-10T08:06:20;97494.20;;;1.86
68510;BMP180;55512;50.102;19.958;2022-12-10T08:08:47;97493.80;;;1.80
68510;BMP180;55512;50.102;19.958;2022-12-10T08:11:15;97492.80;;;1.80
68510;BMP180;55512;50.102;19.958;2022-12-10T08:13:41;97492.00;;;1.80
68510;BMP180;55512;50.102;19.958;2022-12-10T08:16:13;97491.20;;;1.80
68510;BMP180;55512;50.102;19.958;2022-12-10T08:18:39;97497.00;;;1.80
68510;BMP180;55512;50.102;19.958;2022-12-10T08:21:07;97495.60;;;1.80
68510;BMP180;55512;50.102;19.958;2022-12-10T08:23:33;97498.20;;;1.80
68510;BMP180;55512;50.102;19.958;2022-12-10T08:26:04;97507.40;;;1.80
68510;BMP180;55512;50.102;19.958;2022-12-10T08:28:29;97517.60;;;1.80
68510;BMP180;55512;50.102;19.958;2022-12-10T08:30:55;97521.80;;;1.80
68510;BMP180;55512;50.102;19.958;2022-12-10T08:33:20;97524.80;;;1.84
68510;BMP180;55512;50.102;19.958;2022-12-10T08:35:46;97527.80;;;1.90
68510;BMP180;55512;50.102;19.958;2022-12-10T08:38:11;97531.20;;;1.90
68510;BMP180;55512;50.102;19.958;2022-12-10T08:40:41;97533.60;;;1.90
68510;BMP180;55512;50.102;19.958;2022-12-10T08:43:07;97533.40;;;1.90
68510;BMP180;55512;50.102;19.958;2022-12-10T08:45:34;97538.20;;;1.90
68510;BMP180;55512;50.102;19.958;2022-12-10T08:48:01;97529.60;;;1.90
68510;BMP180;55512;50.102;19.958;2022-12-10T08:50:28;97530.20;;;1.92
68510;BMP180;55512;50.102;19.958;2022-12-10T08:52:54;97532.60;;;2.00
68510;BMP180;55512;50.102;19.958;2022-12-10T08:55:19;97528.00;;;2.00
68510;BMP180;55512;50.102;19.958;2022-12-10T08:57:45;97524.20;;;2.04
68510;BMP180;55512;50.102;19.958;2022-12-10T09:00:11;97526.00;;;2.10
68510;BMP180;55512;50.102;19.958;2022-12-10T09:02:38;97519.00;;;2.10
68510;BMP180;55512;50.102;19.958;2022-12-10T09:05:05;97514.40;;;2.10
68510;BMP180;55512;50.102;19.958;2022-12-10T09:07:30;97508.80;;;2.10
68510;BMP180;55512;50.102;19.958;2022-12-10T09:09:56;97515.60;;;2.10
68510;BMP180;55512;50.102;19.958;2022-12-10T09:12:21;97518.80;;;2.10
68510;BMP180;55512;50.102;19.958;2022-12-10T09:14:47;97525.00;;;2.10
68510;BMP180;55512;50.102;19.958;2022-12-10T09:17:12;97525.40;;;2.10
68510;BMP180;55512;50.102;19.958;2022-12-10T09:19:37;97526.40;;;2.10
68510;BMP180;55512;50.102;19.958;2022-12-10T09:22:03;97521.40;;;2.10
68510;BMP180;55512;50.102;19.958;2022-12-10T09:24:28;97523.40;;;2.10
68510;BMP180;55512;50.102;19.958;2022-12-10T09:26:54;97524.00;;;2.16
68510;BMP180;55512;50.102;19.958;2022-12-10T09:29:19;97524.80;;;2.10
68510;BMP180;55512;50.102;19.958;2022-12-10T09:31:49;97514.00;;;2.18
68510;BMP180;55512;50.102;19.958;2022-12-10T09:34:15;97512.80;;;2.20
68510;BMP180;55512;50.102;19.958;2022-12-10T09:36:40;97515.60;;;2.20
68510;BMP180;55512;50.102;19.958;2022-12-10T09:39:06;97514.60;;;2.22
68510;BMP180;55512;50.102;19.958;2022-12-10T09:41:50;97499.60;;;2.20
68510;BMP180;55512;50.102;19.958;2022-12-10T09:44:35;97494.40;;;2.30
68510;BMP180;55512;50.102;19.958;2022-12-10T09:47:08;97496.40;;;2.40
68510;BMP180;55512;50.102;19.958;2022-12-10T09:52:26;97496.00;;;2.50
68510;BMP180;55512;50.102;19.958;2022-12-10T09:54:56;97505.00;;;2.50
68510;BMP180;55512;50.102;19.958;2022-12-10T09:57:31;97501.40;;;2.50
68510;BMP180;55512;50.102;19.958;2022-12-10T10:00:33;97498.80;;;2.60
68510;BMP180;55512;50.102;19.958;2022-12-10T10:03:00;97499.80;;;2.60
68510;BMP180;55512;50.102;19.958;2022-12-10T10:05:39;97502.80;;;2.60
68510;BMP180;55512;50.102;19.958;2022-12-10T10:08:14;97502.80;;;2.58
68510;BMP180;55512;50.102;19.958;2022-12-10T10:10:44;97505.20;;;2.60
68510;BMP180;55512;50.102;19.958;2022-12-10T10:13:17;97509.00;;;2.60
68510;BMP180;55512;50.102;19.958;2022-12-10T10:15:45;97499.80;;;2.60
68510;BMP180;55512;50.102;19.958;2022-12-10T10:18:23;97499.40;;;2.60
68510;BMP180;55512;50.102;19.958;2022-12-10T10:20:55;97502.60;;;2.60
68510;BMP180;55512;50.102;19.958;2022-12-10T10:23:21;97504.20;;;2.60
68510;BMP180;55512;50.102;19.958;2022-12-10T10:25:47;97500.00;;;2.60
68510;BMP180;55512;50.102;19.958;2022-12-10T10:28:19;97493.00;;;2.60
68510;BMP180;55512;50.102;19.958;2022-12-10T10:30:45;97494.60;;;2.60
68510;BMP180;55512;50.102;19.958;2022-12-10T10:33:14;97497.80;;;2.60
68510;BMP180;55512;50.102;19.958;2022-12-10T10:35:49;97497.80;;;2.60
68510;BMP180;55512;50.102;19.958;2022-12-10T10:38:27;97491.20;;;2.60
68510;BMP180;55512;50.102;19.958;2022-12-10T10:41:04;97483.20;;;2.70
68510;BMP180;55512;50.102;19.958;2022-12-10T10:43:41;97491.80;;;2.70
68510;BMP180;55512;50.102;19.958;2022-12-10T10:46:21;97483.40;;;2.80
68510;BMP180;55512;50.102;19.958;2022-12-10T10:48:47;97474.80;;;2.80
68510;BMP180;55512;50.102;19.958;2022-12-10T10:53:47;97478.00;;;3.00
68510;BMP180;55512;50.102;19.958;2022-12-10T10:59:25;97493.00;;;3.00
68510;BMP180;55512;50.102;19.958;2022-12-10T11:04:50;97500.60;;;2.92
68510;BMP180;55512;50.102;19.958;2022-12-10T11:09:57;97498.40;;;2.80
68510;BMP180;55512;50.102;19.958;2022-12-10T11:12:31;97498.40;;;2.70
68510;BMP180;55512;50.102;19.958;2022-12-10T11:14:58;97501.80;;;2.70
68510;BMP180;55512;50.102;19.958;2022-12-10T11:17:26;97507.00;;;2.70
68510;BMP180;55512;50.102;19.958;2022-12-10T11:20:16;97510.40;;;2.60
68510;BMP180;55512;50.102;19.958;2022-12-10T11:23:01;97508.00;;;2.60
68510;BMP180;55512;50.102;19.958;2022-12-10T11:26:00;97497.80;;;2.60
68510;BMP180;55512;50.102;19.958;2022-12-10T11:37:34;97512.00;;;2.70
68510;BMP180;55512;50.102;19.958;2022-12-10T11:51:08;97499.60;;;2.54
68510;BMP180;55512;50.102;19.958;2022-12-10T11:56:48;97509.80;;;2.44
68510;BMP180;55512;50.102;19.958;2022-12-10T11:59:31;97500.20;;;2.50
68510;BMP180;55512;50.102;19.958;2022-12-10T12:13:55;97506.80;;;2.20
68510;BMP180;55512;50.102;19.958;2022-12-10T12:16:38;97502.60;;;2.20
68510;BMP180;55512;50.102;19.958;2022-12-10T12:19:21;97501.20;;;2.10
68510;BMP180;55512;50.102;19.958;2022-12-10T12:21:50;97499.40;;;2.10
68510;BMP180;55512;50.102;19.958;2022-12-10T12:24:34;97501.20;;;2.10
68510;BMP180;55512;50.102;19.958;2022-12-10T12:27:39;97496.20;;;2.10
68510;BMP180;55512;50.102;19.958;2022-12-10T12:30:14;97496.20;;;2.00
68510;BMP180;55512;50.102;19.958;2022-12-10T12:33:09;97496.20;;;2.00
68510;BMP180;55512;50.102;19.958;2022-12-10T12:35:44;97493.80;;;2.00
68510;BMP180;55512;50.102;19.958;2022-12-10T12:38:30;97486.00;;;2.00
68510;BMP180;55512;50.102;19.958;2022-12-10T12:41:16;97477.00;;;1.94
68510;BMP180;55512;50.102;19.958;2022-12-10T12:43:54;97481.20;;;1.90
68510;BMP180;55512;50.102;19.958;2022-12-10T12:46:47;97474.60;;;1.90
68510;BMP180;55512;50.102;19.958;2022-12-10T12:49:32;97468.80;;;1.80
68510;BMP180;55512;50.102;19.958;2022-12-10T12:52:28;97474.00;;;1.70
68510;BMP180;55512;50.102;19.958;2022-12-10T12:55:05;97484.00;;;1.70
68510;BMP180;55512;50.102;19.958;2022-12-10T12:57:50;97490.20;;;1.70
68510;BMP180;55512;50.102;19.958;2022-12-10T13:00:21;97490.40;;;1.76
68510;BMP180;55512;50.102;19.958;2022-12-10T13:05:51;97497.00;;;1.60
68510;BMP180;55512;50.102;19.958;2022-12-10T13:10:59;97484.80;;;1.60
68510;BMP180;55512;50.102;19.958;2022-12-10T13:13:32;97484.60;;;1.60
68510;BMP180;55512;50.102;19.958;2022-12-10T13:22:11;97493.60;;;1.60
68510;BMP180;55512;50.102;19.958;2022-12-10T13:43:35;97530.40;;;1.60
68510;BMP180;55512;50.102;19.958;2022-12-10T13:46:50;97529.00;;;1.68
68510;BMP180;55512;50.102;19.958;2022-12-10T13:49:20;97535.40;;;1.70
68510;BMP180;55512;50.102;19.958;2022-12-10T13:55:02;97539.20;;;1.80
68510;BMP180;55512;50.102;19.958;2022-12-10T14:00:21;97524.40;;;1.90
68510;BMP180;55512;50.102;19.958;2022-12-10T14:05:58;97542.40;;;1.90
68510;BMP180;55512;50.102;19.958;2022-12-10T14:08:32;97542.60;;;1.90
68510;BMP180;55512;50.102;19.958;2022-12-10T14:11:05;97545.00;;;1.90
68510;BMP180;55512;50.102;19.958;2022-12-10T14:13:44;97550.40;;;1.90
68510;BMP180;55512;50.102;19.958;2022-12-10T14:16:14;97554.00;;;1.90
68510;BMP180;55512;50.102;19.958;2022-12-10T14:18:52;97552.00;;;1.90
68510;BMP180;55512;50.102;19.958;2022-12-10T14:21:19;97557.20;;;1.90
68510;BMP180;55512;50.102;19.958;2022-12-10T14:23:47;97560.40;;;1.90
68510;BMP180;55512;50.102;19.958;2022-12-10T14:26:21;97553.60;;;1.90
68510;BMP180;55512;50.102;19.958;2022-12-10T14:28:54;97552.20;;;1.90
68510;BMP180;55512;50.102;19.958;2022-12-10T14:31:35;97542.60;;;1.90
68510;BMP180;55512;50.102;19.958;2022-12-10T14:34:08;97540.80;;;1.90
68510;BMP180;55512;50.102;19.958;2022-12-10T14:36:39;97542.40;;;1.90
68510;BMP180;55512;50.102;19.958;2022-12-10T14:39:20;97543.80;;;1.90
68510;BMP180;55512;50.102;19.958;2022-12-10T14:41:48;97544.20;;;1.90
68510;BMP180;55512;50.102;19.958;2022-12-10T14:44:17;97548.80;;;1.90
68510;BMP180;55512;50.102;19.958;2022-12-10T14:46:43;97540.00;;;1.82
68510;BMP180;55512;50.102;19.958;2022-12-10T14:49:26;97532.20;;;1.80
68510;BMP180;55512;50.102;19.958;2022-12-10T14:51:52;97532.20;;;1.80
68510;BMP180;55512;50.102;19.958;2022-12-10T14:54:30;97531.00;;;1.70
68510;BMP180;55512;50.102;19.958;2022-12-10T14:57:02;97529.60;;;1.72
68510;BMP180;55512;50.102;19.958;2022-12-10T15:00:03;97532.80;;;1.70
68510;BMP180;55512;50.102;19.958;2022-12-10T15:02:40;97543.40;;;1.80
68510;BMP180;55512;50.102;19.958;2022-12-10T15:05:25;97548.60;;;1.80
68510;BMP180;55512;50.102;19.958;2022-12-10T15:08:00;97547.80;;;1.80
68510;BMP180;55512;50.102;19.958;2022-12-10T15:10:35;97547.20;;;1.80
68510;BMP180;55512;50.102;19.958;2022-12-10T15:13:03;97537.20;;;1.80
68510;BMP180;55512;50.102;19.958;2022-12-10T15:15:34;97526.80;;;1.80
68510;BMP180;55512;50.102;19.958;2022-12-10T15:18:15;97528.20;;;1.80
68510;BMP180;55512;50.102;19.958;2022-12-10T15:23:31;97535.00;;;1.80
68510;BMP180;55512;50.102;19.958;2022-12-10T15:28:38;97545.60;;;1.80
68510;BMP180;55512;50.102;19.958;2022-12-10T15:34:07;97547.80;;;1.80
68510;BMP180;55512;50.102;19.958;2022-12-10T15:36:37;97553.60;;;1.80
68510;BMP180;55512;50.102;19.958;2022-12-10T15:39:19;97560.80;;;1.80
68510;BMP180;55512;50.102;19.958;2022-12-10T15:41:50;97563.20;;;1.80
68510;BMP180;55512;50.102;19.958;2022-12-10T15:47:18;97567.40;;;1.80
68510;BMP180;55512;50.102;19.958;2022-12-10T15:49:45;97573.60;;;1.82
68510;BMP180;55512;50.102;19.958;2022-12-10T15:52:18;97566.40;;;1.88
68510;BMP180;55512;50.102;19.958;2022-12-10T15:54:48;97561.00;;;1.90
68510;BMP180;55512;50.102;19.958;2022-12-10T15:59:45;97558.60;;;1.90
68510;BMP180;55512;50.102;19.958;2022-12-10T16:05:36;97563.80;;;2.00
68510;BMP180;55512;50.102;19.958;2022-12-10T16:08:27;97565.40;;;2.08
68510;BMP180;55512;50.102;19.958;2022-12-10T16:10:59;97564.00;;;2.10
68510;BMP180;55512;50.102;19.958;2022-12-10T16:13:30;97561.80;;;2.10
68510;BMP180;55512;50.102;19.958;2022-12-10T16:16:09;97559.20;;;2.14
68510;BMP180;55512;50.102;19.958;2022-12-10T16:18:36;97547.80;;;2.18
68510;BMP180;55512;50.102;19.958;2022-12-10T16:21:07;97547.40;;;2.20
68510;BMP180;55512;50.102;19.958;2022-12-10T16:23:34;97544.60;;;2.20
68510;BMP180;55512;50.102;19.958;2022-12-10T16:26:00;97540.60;;;2.20
68510;BMP180;55512;50.102;19.958;2022-12-10T16:28:26;97540.20;;;2.20
68510;BMP180;55512;50.102;19.958;2022-12-10T16:30:55;97541.40;;;2.20
68510;BMP180;55512;50.102;19.958;2022-12-10T16:33:24;97544.80;;;2.20
68510;BMP180;55512;50.102;19.958;2022-12-10T16:35:52;97544.60;;;2.20
68510;BMP180;55512;50.102;19.958;2022-12-10T16:38:19;97541.20;;;2.20